Time;durP1;ratioP1;P1;durP2;ratioP2;P2;SDS_P1;SDS_P2;PMS_P1;PMS_P2;Temp;Humidity;BMP_temperature;BMP_pressure;BME280_temperature;BME280_humidity;BME280_pressure;Samples;Min_cycle;Max_cycle;Signal;HPM_P1;HPM_P2
2023/09/15 00:02:12;;;;;;;7.37;6.60;;;;;;;;;;4940287;29;20216;-81
2023/09/15 00:05:16;;;;;;;7.27;6.43;;;;;;;;;;4941371;29;20184;-80
2023/09/15 00:08:21;;;;;;;8.60;5.83;;;;;;;;;;4941767;29;20184;-81
2023/09/15 00:11:40;;;;;;;6.40;5.70;;;;;;;;;;4929247;29;20184;-82
2023/09/15 00:14:46;;;;;;;8.90;5.87;;;;;;;;;;4940566;29;20185;-83
2023/09/15 00:17:50;;;;;;;10.77;6.73;;;;;;;;;;4940432;29;20622;-82
2023/09/15 00:20:54;;;;;;;8.30;6.07;;;;;;;;;;4940744;29;20219;-82
2023/09/15 00:24:01;;;;;;;6.17;5.33;;;;;;;;;;4940682;29;20188;-81
2023/09/15 00:27:05;;;;;;;6.27;5.67;;;;;;;;;;4940399;29;20540;-81
2023/09/15 00:30:10;;;;;;;10.27;6.03;;;;;;;;;;4939529;29;20184;-81
2023/09/15 00:33:14;;;;;;;6.90;6.20;;;;;;;;;;4939422;29;20729;-81
2023/09/15 00:36:18;;;;;;;8.70;6.37;;;;;;;;;;4939511;29;20646;-81
2023/09/15 00:39:24;;;;;;;7.60;6.80;;;;;;;;;;4940308;29;20188;-81
2023/09/15 00:42:28;;;;;;;10.17;6.47;;;;;;;;;;4929019;29;20208;-81
2023/09/15 00:45:33;;;;;;;8.00;6.57;;;;;;;;;;4939077;29;20188;-81
2023/09/15 00:48:39;;;;;;;8.53;6.20;;;;;;;;;;4939459;29;20177;-81
2023/09/15 00:51:44;;;;;;;7.40;6.30;;;;;;;;;;4948039;28;20227;-82
2023/09/15 00:54:48;;;;;;;7.53;6.07;;;;;;;;;;4943732;29;20638;-82
2023/09/15 00:57:56;;;;;;;6.33;5.73;;;;;;;;;;4944198;29;20630;-82
2023/09/15 01:01:01;;;;;;;8.30;6.03;;;;;;;;;;4945553;29;20212;-82
2023/09/15 01:04:08;;;;;;;6.63;5.90;;;;;;;;;;4945050;29;20644;-82
2023/09/15 01:07:13;;;;;;;8.60;6.23;;;;;;;;;;4921612;29;20181;-82
2023/09/15 01:10:22;;;;;;;6.20;5.60;;;;;;;;;;4944638;29;20180;-82
2023/09/15 01:13:26;;;;;;;6.50;5.80;;;;;;;;;;4945383;29;20228;-82
2023/09/15 01:16:38;;;;;;;7.87;5.47;;;;;;;;;;4946991;29;20188;-82
2023/09/15 01:20:09;;;;;;;7.33;5.30;;;;;;;;;;4947066;29;20184;-82
2023/09/15 01:23:31;;;;;;;5.33;4.77;;;;;;;;;;4946844;29;20219;-82
2023/09/15 01:27:05;;;;;;;6.27;5.50;;;;;;;;;;4947506;29;20181;-82
2023/09/15 01:30:11;;;;;;;7.97;6.00;;;;;;;;;;4936614;29;20180;-82
2023/09/15 01:33:20;;;;;;;7.87;5.53;;;;;;;;;;4935923;29;20223;-82
2023/09/15 01:36:24;;;;;;;5.90;5.30;;;;;;;;;;4946947;29;20543;-82
2023/09/15 01:39:30;;;;;;;6.43;5.73;;;;;;;;;;4935589;29;20188;-82
2023/09/15 01:42:35;;;;;;;9.83;5.53;;;;;;;;;;4946743;29;20216;-82
2023/09/15 01:45:39;;;;;;;8.07;5.50;;;;;;;;;;4935861;29;20176;-82
2023/09/15 01:48:44;;;;;;;7.53;5.80;;;;;;;;;;4946325;29;20176;-82
2023/09/15 01:51:49;;;;;;;8.13;6.37;;;;;;;;;;4933665;29;20563;-82
2023/09/15 01:54:54;;;;;;;8.43;6.13;;;;;;;;;;4935028;29;20184;-81
2023/09/15 01:57:59;;;;;;;8.90;6.57;;;;;;;;;;4946250;29;20192;-81
2023/09/15 02:01:04;;;;;;;7.27;6.47;;;;;;;;;;4945700;29;20211;-81
2023/09/15 02:04:11;;;;;;;9.23;7.53;;;;;;;;;;4924027;29;20184;-82
2023/09/15 02:07:17;;;;;;;9.17;7.77;;;;;;;;;;4945083;29;20196;-81
2023/09/15 02:10:29;;;;;;;8.47;6.60;;;;;;;;;;4923958;29;20173;-81
2023/09/15 02:13:36;;;;;;;7.77;6.87;;;;;;;;;;4922260;29;20693;-81
2023/09/15 02:16:42;;;;;;;9.00;7.37;;;;;;;;;;4934243;29;20184;-81
2023/09/15 02:19:46;;;;;;;10.83;7.00;;;;;;;;;;4933527;29;20184;-81
2023/09/15 02:22:51;;;;;;;8.23;6.50;;;;;;;;;;4933860;29;20733;-82
2023/09/15 02:25:55;;;;;;;9.03;6.90;;;;;;;;;;4934037;29;20184;-82
2023/09/15 02:29:00;;;;;;;7.00;6.20;;;;;;;;;;4933165;29;20556;-81
2023/09/15 02:32:05;;;;;;;9.23;7.07;;;;;;;;;;4932894;29;20223;-81
2023/09/15 02:35:11;;;;;;;9.97;7.00;;;;;;;;;;4943512;29;20180;-82
2023/09/15 02:38:15;;;;;;;8.67;7.50;;;;;;;;;;4921398;29;20192;-81
2023/09/15 02:41:20;;;;;;;10.20;8.30;;;;;;;;;;4931377;29;20216;-81
2023/09/15 02:44:26;;;;;;;9.50;8.50;;;;;;;;;;4943201;29;20200;-81
2023/09/15 02:47:30;;;;;;;9.60;8.03;;;;;;;;;;4921067;29;20220;-81
2023/09/15 02:50:34;;;;;;;9.20;7.53;;;;;;;;;;4942362;29;20189;-81
2023/09/15 02:53:40;;;;;;;9.03;8.10;;;;;;;;;;4943236;29;20219;-82
2023/09/15 02:56:45;;;;;;;11.63;7.30;;;;;;;;;;4931447;29;20184;-81
2023/09/15 02:59:51;;;;;;;11.33;7.30;;;;;;;;;;4938430;29;20201;-81
2023/09/15 03:02:56;;;;;;;7.93;7.13;;;;;;;;;;4929635;29;20224;-81
2023/09/15 03:06:07;;;;;;;8.53;7.07;;;;;;;;;;4943421;29;20193;-81
2023/09/15 03:09:13;;;;;;;12.50;8.43;;;;;;;;;;4922660;29;20188;-82
2023/09/15 03:12:18;;;;;;;8.20;6.83;;;;;;;;;;4932623;29;20225;-81
2023/09/15 03:15:23;;;;;;;9.20;7.50;;;;;;;;;;4943894;29;20192;-81
2023/09/15 03:18:27;;;;;;;8.83;7.13;;;;;;;;;;4933089;29;20188;-82
2023/09/15 03:21:33;;;;;;;8.10;6.83;;;;;;;;;;4943107;29;20220;-82
2023/09/15 03:24:38;;;;;;;8.57;7.07;;;;;;;;;;4943198;29;20184;-82
2023/09/15 03:27:46;;;;;;;8.70;6.60;;;;;;;;;;4922063;29;20184;-82
2023/09/15 03:30:50;;;;;;;9.67;7.73;;;;;;;;;;4931734;29;20184;-82
2023/09/15 03:33:54;;;;;;;8.43;6.50;;;;;;;;;;4942959;29;20523;-81
2023/09/15 03:37:01;;;;;;;9.53;6.77;;;;;;;;;;4942516;29;20184;-82
2023/09/15 03:40:08;;;;;;;8.43;6.53;;;;;;;;;;4932152;29;20188;-82
2023/09/15 03:43:14;;;;;;;8.80;6.63;;;;;;;;;;4942568;29;20217;-82
2023/09/15 03:46:20;;;;;;;9.47;6.83;;;;;;;;;;4941246;29;20212;-82
2023/09/15 03:49:24;;;;;;;8.40;6.77;;;;;;;;;;4941682;29;20180;-81
2023/09/15 03:52:29;;;;;;;7.93;6.63;;;;;;;;;;4930840;29;20219;-81
2023/09/15 03:55:32;;;;;;;7.83;7.00;;;;;;;;;;4942008;29;20184;-81
2023/09/15 03:58:37;;;;;;;7.93;7.13;;;;;;;;;;4942141;29;20188;-82
2023/09/15 04:01:41;;;;;;;8.30;7.50;;;;;;;;;;4920356;29;20713;-82
2023/09/15 04:04:45;;;;;;;11.27;7.37;;;;;;;;;;4942181;29;20184;-82
2023/09/15 04:07:50;;;;;;;11.43;7.07;;;;;;;;;;4930817;29;20197;-80
2023/09/15 04:10:54;;;;;;;7.93;7.07;;;;;;;;;;4930168;29;20189;-81
2023/09/15 04:13:58;;;;;;;9.93;7.77;;;;;;;;;;4942042;29;20180;-82
2023/09/15 04:17:05;;;;;;;8.73;7.73;;;;;;;;;;4941148;29;20188;-81
2023/09/15 04:20:10;;;;;;;10.53;7.10;;;;;;;;;;4930640;29;20188;-81
2023/09/15 04:23:15;;;;;;;8.00;7.20;;;;;;;;;;4940680;29;20208;-80
2023/09/15 04:26:20;;;;;;;8.83;7.50;;;;;;;;;;4930291;29;20638;-81
2023/09/15 04:29:25;;;;;;;10.23;7.93;;;;;;;;;;4941003;29;20180;-80
2023/09/15 04:32:30;;;;;;;13.53;11.37;;;;;;;;;;4941624;29;20232;-83
2023/09/15 04:35:34;;;;;;;18.67;14.43;;;;;;;;;;4929877;29;20215;-82
2023/09/15 04:38:38;;;;;;;18.80;14.20;;;;;;;;;;4929211;29;20196;-82
2023/09/15 04:41:42;;;;;;;19.03;14.80;;;;;;;;;;4940155;29;20246;-82
2023/09/15 04:44:46;;;;;;;20.77;15.40;;;;;;;;;;4928988;29;20199;-82
2023/09/15 04:47:50;;;;;;;19.80;15.13;;;;;;;;;;4939826;29;20211;-82
2023/09/15 04:51:00;;;;;;;21.57;16.10;;;;;;;;;;4940398;29;20187;-82
2023/09/15 04:54:04;;;;;;;23.77;16.87;;;;;;;;;;4940261;29;20544;-81
2023/09/15 04:57:09;;;;;;;22.90;16.63;;;;;;;;;;4939583;29;20194;-81
2023/09/15 05:00:23;;;;;;;21.93;16.30;;;;;;;;;;4927958;29;20187;-80
2023/09/15 05:03:32;;;;;;;22.53;16.53;;;;;;;;;;4927876;29;20289;-80
2023/09/15 05:06:37;;;;;;;25.57;16.57;;;;;;;;;;4938145;29;20199;-80
2023/09/15 05:09:41;;;;;;;23.90;16.10;;;;;;;;;;4938043;29;20184;-80
2023/09/15 05:12:46;;;;;;;23.30;16.27;;;;;;;;;;4939431;29;20222;-79
2023/09/15 05:15:50;;;;;;;27.03;17.10;;;;;;;;;;4938598;29;20191;-81
2023/09/15 05:18:54;;;;;;;24.03;16.90;;;;;;;;;;4927407;29;20191;-81
2023/09/15 05:21:58;;;;;;;22.23;16.07;;;;;;;;;;4938819;29;20732;-80
2023/09/15 05:25:04;;;;;;;26.17;17.40;;;;;;;;;;4927792;29;20183;-81
2023/09/15 05:28:10;;;;;;;25.70;15.30;;;;;;;;;;4938377;29;20187;-81
2023/09/15 05:31:14;;;;;;;20.67;15.73;;;;;;;;;;4936913;29;20202;-81
2023/09/15 05:34:19;;;;;;;18.67;15.57;;;;;;;;;;4939463;29;20195;-80
2023/09/15 05:37:23;;;;;;;21.30;15.17;;;;;;;;;;4942280;29;20565;-81
2023/09/15 05:40:28;;;;;;;20.67;14.93;;;;;;;;;;4958233;29;20206;-81
2023/09/15 05:43:32;;;;;;;20.90;15.10;;;;;;;;;;4958422;28;20222;-80
2023/09/15 05:46:36;;;;;;;21.93;13.70;;;;;;;;;;4958050;29;20218;-81
2023/09/15 05:49:40;;;;;;;18.50;14.27;;;;;;;;;;4959053;29;20210;-80
2023/09/15 05:52:45;;;;;;;19.80;14.13;;;;;;;;;;4957872;28;20592;-80
2023/09/15 05:55:49;;;;;;;17.13;13.80;;;;;;;;;;4959289;29;20186;-88
2023/09/15 05:58:54;;;;;;;18.90;14.03;;;;;;;;;;4948005;29;20680;-88
2023/09/15 06:01:59;;;;;;;18.07;13.90;;;;;;;;;;4958051;28;20234;-88
2023/09/15 06:05:03;;;;;;;17.83;13.60;;;;;;;;;;4947084;29;20190;-88
2023/09/15 06:08:08;;;;;;;17.97;13.47;;;;;;;;;;4946730;29;20191;-88
2023/09/15 06:11:12;;;;;;;17.47;13.50;;;;;;;;;;4935361;29;20190;-88
2023/09/15 06:14:16;;;;;;;22.20;13.80;;;;;;;;;;4957768;29;20190;-88
2023/09/15 06:17:20;;;;;;;19.40;13.53;;;;;;;;;;4946419;29;20194;-88
2023/09/15 06:20:26;;;;;;;22.33;14.17;;;;;;;;;;4945965;29;20194;-88
2023/09/15 06:23:31;;;;;;;21.67;13.87;;;;;;;;;;4957547;28;20242;-88
2023/09/15 06:26:36;;;;;;;16.47;13.77;;;;;;;;;;4946954;29;20187;-88
2023/09/15 06:29:40;;;;;;;17.57;13.83;;;;;;;;;;4957657;29;20210;-88
2023/09/15 06:32:44;;;;;;;18.23;13.20;;;;;;;;;;4917469;29;20240;-88
2023/09/15 06:35:48;;;;;;;19.53;14.90;;;;;;;;;;4929643;29;20192;-88
2023/09/15 06:38:52;;;;;;;18.03;13.67;;;;;;;;;;4932432;29;20554;-88
2023/09/15 06:41:56;;;;;;;17.07;13.13;;;;;;;;;;4911595;29;20724;-88
2023/09/15 06:45:00;;;;;;;13.93;11.80;;;;;;;;;;4923023;29;20661;-88
2023/09/15 06:48:49;;;;;;;27.33;13.53;;;;;;;;;;4923026;29;20278;-84
2023/09/15 06:52:35;;;;;;;17.47;13.47;;;;;;;;;;4933963;29;20223;-83
2023/09/15 06:56:56;;;;;;;19.43;13.10;;;;;;;;;;4866994;29;20217;-82
2023/09/15 07:01:23;;;;;;;17.83;13.33;;;;;;;;;;4858703;29;20206;-83
2023/09/15 07:05:18;;;;;;;17.90;13.43;;;;;;;;;;4874710;29;20219;-82
2023/09/15 07:13:18;;;;;;;15.73;11.90;;;;;;;;;;4936693;23;20247;-73
2023/09/15 07:16:22;;;;;;;15.60;12.73;;;;;;;;;;4940471;29;20192;-73
2023/09/15 07:19:26;;;;;;;16.80;11.80;;;;;;;;;;4939621;29;20195;-73
2023/09/15 07:22:31;;;;;;;17.60;12.73;;;;;;;;;;4928555;29;20230;-74
2023/09/15 07:25:35;;;;;;;14.73;11.80;;;;;;;;;;4939377;29;20195;-73
2023/09/15 07:28:40;;;;;;;15.67;12.07;;;;;;;;;;4938503;29;20235;-73
2023/09/15 07:31:44;;;;;;;13.70;10.83;;;;;;;;;;4939180;29;20231;-73
2023/09/15 07:34:49;;;;;;;19.70;11.57;;;;;;;;;;4939420;29;20191;-73
2023/09/15 07:37:53;;;;;;;16.83;11.63;;;;;;;;;;4939217;29;20191;-73
2023/09/15 07:40:58;;;;;;;14.13;9.83;;;;;;;;;;4939484;29;20587;-73
2023/09/15 07:44:02;;;;;;;23.47;9.47;;;;;;;;;;4927177;29;20208;-73
2023/09/15 07:47:11;;;;;;;11.93;8.40;;;;;;;;;;4926590;29;20192;-73
2023/09/15 07:50:20;;;;;;;9.20;7.60;;;;;;;;;;4936072;29;20184;-73
2023/09/15 07:53:24;;;;;;;8.17;6.80;;;;;;;;;;4937266;29;20525;-74
2023/09/15 07:56:27;;;;;;;17.93;6.47;;;;;;;;;;4938610;29;20188;-74
2023/09/15 07:59:31;;;;;;;8.70;6.60;;;;;;;;;;4938613;29;20210;-74
2023/09/15 08:02:36;;;;;;;7.57;6.30;;;;;;;;;;4941125;29;20232;-74
2023/09/15 08:05:41;;;;;;;7.83;5.57;;;;;;;;;;4935890;29;20212;-74
2023/09/15 08:08:45;;;;;;;13.33;6.70;;;;;;;;;;4940802;29;20204;-74
2023/09/15 08:11:49;;;;;;;6.80;5.13;;;;;;;;;;4926270;29;20608;-73
2023/09/15 08:14:53;;;;;;;7.47;5.53;;;;;;;;;;4941626;29;20204;-74
2023/09/15 08:17:58;;;;;;;5.90;5.17;;;;;;;;;;4940406;29;20197;-74
2023/09/15 08:21:02;;;;;;;6.47;4.87;;;;;;;;;;4913931;29;20232;-74
2023/09/15 08:24:06;;;;;;;7.30;5.50;;;;;;;;;;4925311;29;20216;-74
2023/09/15 08:27:11;;;;;;;6.83;5.93;;;;;;;;;;4921637;29;20674;-74
2023/09/15 08:30:15;;;;;;;8.27;4.93;;;;;;;;;;4932580;29;20196;-75
2023/09/15 08:33:19;;;;;;;5.67;4.43;;;;;;;;;;4941231;29;20633;-74
2023/09/15 08:36:25;;;;;;;4.43;4.03;;;;;;;;;;4939978;29;20186;-74
2023/09/15 08:39:30;;;;;;;8.60;3.90;;;;;;;;;;4940412;29;20183;-74
2023/09/15 08:42:34;;;;;;;4.63;4.20;;;;;;;;;;4938939;29;20220;-74
2023/09/15 08:45:38;;;;;;;6.40;4.20;;;;;;;;;;4939971;29;20192;-74
2023/09/15 08:48:46;;;;;;;5.00;4.10;;;;;;;;;;4939071;29;20194;-74
2023/09/15 08:51:51;;;;;;;4.53;3.70;;;;;;;;;;4938923;29;20691;-74
2023/09/15 08:54:56;;;;;;;5.45;4.25;;;;;;;;;;4939304;29;20190;-74
2023/09/15 08:58:03;;;;;;;5.55;4.20;;;;;;;;;;4939443;29;20647;-74
2023/09/15 09:01:09;;;;;;;7.43;3.65;;;;;;;;;;4938608;29;20219;-75
2023/09/15 09:04:13;;;;;;;5.35;3.90;;;;;;;;;;4937438;29;20210;-75
2023/09/15 09:07:20;;;;;;;4.90;3.47;;;;;;;;;;4937479;29;20185;-74
2023/09/15 09:10:25;;;;;;;4.72;3.72;;;;;;;;;;4937187;29;20184;-74
2023/09/15 09:13:29;;;;;;;4.78;3.50;;;;;;;;;;4936834;29;20205;-74
2023/09/15 09:16:34;;;;;;;5.32;3.60;;;;;;;;;;4937266;29;20188;-74
2023/09/15 09:19:39;;;;;;;4.35;3.63;;;;;;;;;;4937060;29;20182;-74
2023/09/15 09:22:43;;;;;;;4.90;4.00;;;;;;;;;;4936822;29;20576;-74
2023/09/15 09:25:47;;;;;;;6.70;3.20;;;;;;;;;;4937191;29;20189;-75
2023/09/15 09:28:57;;;;;;;3.88;3.47;;;;;;;;;;4937184;29;20187;-74
2023/09/15 09:32:01;;;;;;;23.33;4.25;;;;;;;;;;4935963;29;20214;-75
2023/09/15 09:35:05;;;;;;;48.97;4.90;;;;;;;;;;4936912;29;20192;-74
2023/09/15 09:38:12;;;;;;;3.28;2.97;;;;;;;;;;4936819;29;20188;-74
2023/09/15 09:41:21;;;;;;;8.10;2.90;;;;;;;;;;4935764;29;20219;-74
2023/09/15 09:44:26;;;;;;;4.20;2.92;;;;;;;;;;4935808;29;20253;-75
2023/09/15 09:47:30;;;;;;;3.45;3.13;;;;;;;;;;4936726;29;20524;-74
2023/09/15 09:50:35;;;;;;;2.88;2.60;;;;;;;;;;4936266;29;20180;-75
2023/09/15 09:53:39;;;;;;;6.88;3.05;;;;;;;;;;4936409;29;20187;-74
2023/09/15 09:56:49;;;;;;;3.25;2.97;;;;;;;;;;4935517;29;20187;-75
2023/09/15 09:59:54;;;;;;;3.95;2.97;;;;;;;;;;4936753;29;20185;-75
2023/09/15 10:02:57;;;;;;;19.60;3.20;;;;;;;;;;4936142;29;20220;-76
2023/09/15 10:06:04;;;;;;;3.25;2.70;;;;;;;;;;4936338;29;20185;-74
2023/09/15 10:09:09;;;;;;;6.78;3.55;;;;;;;;;;4935312;29;20185;-75
2023/09/15 10:12:14;;;;;;;3.95;3.00;;;;;;;;;;4935252;29;20236;-75
2023/09/15 10:15:18;;;;;;;3.53;2.70;;;;;;;;;;4940404;29;20184;-75
2023/09/15 10:18:22;;;;;;;3.20;2.30;;;;;;;;;;4939831;29;20195;-75
2023/09/15 10:21:28;;;;;;;5.22;2.58;;;;;;;;;;4928232;29;20220;-76
2023/09/15 10:24:32;;;;;;;4.45;2.30;;;;;;;;;;4940446;29;20208;-76
2023/09/15 10:27:36;;;;;;;4.50;2.72;;;;;;;;;;4939271;29;20185;-75
2023/09/15 10:30:41;;;;;;;7.20;2.50;;;;;;;;;;4939964;29;20184;-75
2023/09/15 10:33:45;;;;;;;3.65;2.58;;;;;;;;;;4939769;29;20184;-75
2023/09/15 10:36:48;;;;;;;5.60;2.30;;;;;;;;;;4939799;29;20655;-75
2023/09/15 10:39:59;;;;;;;4.90;2.50;;;;;;;;;;4938900;29;20199;-75
2023/09/15 10:43:07;;;;;;;3.28;2.15;;;;;;;;;;4938803;29;20213;-74
2023/09/15 10:46:11;;;;;;;2.13;1.92;;;;;;;;;;4939394;29;20215;-75
2023/09/15 10:49:20;;;;;;;59.53;6.25;;;;;;;;;;4938821;29;20181;-75
2023/09/15 10:52:33;;;;;;;4.65;4.13;;;;;;;;;;4939473;29;20220;-75
2023/09/15 10:55:38;;;;;;;4.45;2.70;;;;;;;;;;4927818;29;20549;-74
2023/09/15 10:58:43;;;;;;;3.00;2.20;;;;;;;;;;4939226;29;20553;-73
2023/09/15 11:01:48;;;;;;;50.78;4.55;;;;;;;;;;4939452;29;20566;-73
2023/09/15 11:04:52;;;;;;;7.70;2.60;;;;;;;;;;4938143;29;20581;-73
2023/09/15 11:07:57;;;;;;;2.75;2.13;;;;;;;;;;4938448;29;20188;-73
2023/09/15 11:11:11;;;;;;;4.60;2.38;;;;;;;;;;4939294;29;20228;-73
2023/09/15 11:14:17;;;;;;;2.45;2.10;;;;;;;;;;4939256;29;20177;-73
2023/09/15 11:17:21;;;;;;;4.43;2.00;;;;;;;;;;4939006;29;20191;-73
2023/09/15 11:20:27;;;;;;;2.58;1.85;;;;;;;;;;4938251;29;20182;-73
2023/09/15 11:23:31;;;;;;;3.47;2.53;;;;;;;;;;4938930;29;20209;-73
2023/09/15 11:26:36;;;;;;;3.00;2.08;;;;;;;;;;4938022;29;20185;-73
2023/09/15 11:29:41;;;;;;;2.95;2.00;;;;;;;;;;4938880;29;20191;-73
2023/09/15 11:32:45;;;;;;;2.33;2.00;;;;;;;;;;4938930;29;20707;-73
2023/09/15 11:35:49;;;;;;;10.10;2.50;;;;;;;;;;4938583;29;20181;-73
2023/09/15 11:38:55;;;;;;;2.17;1.88;;;;;;;;;;4937841;29;20189;-73
2023/09/15 11:42:09;;;;;;;7.82;2.10;;;;;;;;;;4938576;29;20545;-73
2023/09/15 11:45:13;;;;;;;1.98;1.80;;;;;;;;;;4938662;29;20674;-73
2023/09/15 11:48:20;;;;;;;3.78;1.90;;;;;;;;;;4938427;29;20188;-73
2023/09/15 11:51:24;;;;;;;3.25;1.77;;;;;;;;;;4938314;29;20222;-73
2023/09/15 11:54:30;;;;;;;2.65;2.10;;;;;;;;;;4938496;29;20524;-73
2023/09/15 11:57:35;;;;;;;368.48;19.92;;;;;;;;;;4938259;29;20184;-73
2023/09/15 12:00:39;;;;;;;3.13;1.88;;;;;;;;;;4938584;29;20186;-73
2023/09/15 12:03:45;;;;;;;13.63;2.20;;;;;;;;;;4938121;29;20560;-73
2023/09/15 12:06:49;;;;;;;6.30;2.17;;;;;;;;;;4938315;29;20191;-73
2023/09/15 12:09:54;;;;;;;3.10;1.83;;;;;;;;;;4938240;29;20187;-74
2023/09/15 12:12:59;;;;;;;1.88;1.70;;;;;;;;;;4938052;29;20220;-74
2023/09/15 12:16:04;;;;;;;4.60;1.80;;;;;;;;;;4937298;29;20183;-73
2023/09/15 12:19:10;;;;;;;7.57;2.45;;;;;;;;;;4937283;29;20180;-73
2023/09/15 12:22:14;;;;;;;3.03;1.92;;;;;;;;;;4936831;29;20224;-73
2023/09/15 12:25:19;;;;;;;22.10;2.80;;;;;;;;;;4937944;29;20212;-73
2023/09/15 12:28:23;;;;;;;8.13;3.92;;;;;;;;;;4937924;29;20189;-73
2023/09/15 12:31:27;;;;;;;46.70;4.38;;;;;;;;;;4938084;29;20223;-74
2023/09/15 12:34:32;;;;;;;13.18;2.90;;;;;;;;;;4937790;29;20192;-73
2023/09/15 12:37:44;;;;;;;8.77;2.47;;;;;;;;;;4937669;29;20187;-73
2023/09/15 12:40:50;;;;;;;5.03;2.67;;;;;;;;;;4936776;29;20182;-74
2023/09/15 12:43:54;;;;;;;2.10;1.90;;;;;;;;;;4936896;29;20275;-74
2023/09/15 12:46:58;;;;;;;6.20;2.00;;;;;;;;;;4937604;29;20181;-73
2023/09/15 12:50:05;;;;;;;3.95;2.45;;;;;;;;;;4937420;29;20184;-73
2023/09/15 12:53:09;;;;;;;3.90;2.38;;;;;;;;;;4937282;29;20636;-73
2023/09/15 12:56:13;;;;;;;1.98;1.77;;;;;;;;;;4937342;29;20180;-73
2023/09/15 12:59:17;;;;;;;2.97;1.88;;;;;;;;;;4936403;29;20648;-73
2023/09/15 13:02:21;;;;;;;9.45;2.28;;;;;;;;;;4937205;29;20249;-73
2023/09/15 13:05:25;;;;;;;2.97;1.75;;;;;;;;;;4937172;29;20682;-74
2023/09/15 13:08:30;;;;;;;7.05;3.00;;;;;;;;;;4936447;29;20195;-73
2023/09/15 13:11:36;;;;;;;4.03;2.15;;;;;;;;;;4936772;29;20703;-74
2023/09/15 13:14:41;;;;;;;3.55;1.98;;;;;;;;;;4936408;29;20180;-74
2023/09/15 13:17:44;;;;;;;2.20;2.00;;;;;;;;;;4936401;29;20632;-73
2023/09/15 13:20:48;;;;;;;150.80;12.07;;;;;;;;;;4936019;29;20180;-74
2023/09/15 13:23:52;;;;;;;15.52;2.60;;;;;;;;;;4936741;29;20219;-73
2023/09/15 13:26:56;;;;;;;4.68;1.83;;;;;;;;;;4936124;29;20671;-74
2023/09/15 13:30:00;;;;;;;2.47;2.28;;;;;;;;;;4936731;29;20188;-73
2023/09/15 13:33:05;;;;;;;2.65;2.13;;;;;;;;;;4935803;29;20183;-73
2023/09/15 13:36:09;;;;;;;2.40;1.90;;;;;;;;;;4936752;29;20192;-73
2023/09/15 13:39:14;;;;;;;4.00;1.98;;;;;;;;;;4935750;29;20185;-73
2023/09/15 13:42:30;;;;;;;3.88;2.00;;;;;;;;;;4936849;29;20212;-73
2023/09/15 13:45:34;;;;;;;3.53;1.85;;;;;;;;;;4935878;29;20545;-73
2023/09/15 13:48:39;;;;;;;5.30;1.98;;;;;;;;;;4936605;29;20191;-73
2023/09/15 13:51:43;;;;;;;4.63;1.90;;;;;;;;;;4936422;29;20222;-74
2023/09/15 13:54:47;;;;;;;3.63;2.03;;;;;;;;;;4935853;29;20178;-74
2023/09/15 13:57:51;;;;;;;3.70;1.80;;;;;;;;;;4924618;29;20528;-73
2023/09/15 14:01:00;;;;;;;3.40;1.73;;;;;;;;;;4936392;29;20218;-73
2023/09/15 14:04:06;;;;;;;4.57;1.80;;;;;;;;;;4935621;29;20555;-73
2023/09/15 14:07:11;;;;;;;8.60;1.77;;;;;;;;;;4935400;29;20194;-73
2023/09/15 14:10:15;;;;;;;4.00;1.90;;;;;;;;;;4936634;29;20527;-73
2023/09/15 14:13:20;;;;;;;16.10;2.63;;;;;;;;;;4936215;29;20677;-73
2023/09/15 14:16:24;;;;;;;2.80;2.10;;;;;;;;;;4924751;29;20186;-73
2023/09/15 14:19:28;;;;;;;7.40;2.10;;;;;;;;;;4924601;29;20181;-73
2023/09/15 14:22:32;;;;;;;3.75;1.90;;;;;;;;;;4936470;29;20226;-73
2023/09/15 14:25:36;;;;;;;5.28;1.80;;;;;;;;;;4935987;29;20208;-73
2023/09/15 14:28:40;;;;;;;2.90;2.05;;;;;;;;;;4935377;29;20182;-73
2023/09/15 14:31:44;;;;;;;5.30;1.98;;;;;;;;;;4936019;29;20222;-73
2023/09/15 14:34:48;;;;;;;3.42;2.58;;;;;;;;;;4935556;29;20192;-73
2023/09/15 14:37:52;;;;;;;3.17;1.85;;;;;;;;;;4936256;29;20183;-73
2023/09/15 14:40:57;;;;;;;4.53;2.33;;;;;;;;;;4924838;29;20222;-73
2023/09/15 14:44:01;;;;;;;3.80;2.40;;;;;;;;;;4936152;29;20186;-73
2023/09/15 14:47:05;;;;;;;2.28;2.08;;;;;;;;;;4936448;29;20191;-74
2023/09/15 14:50:09;;;;;;;6.43;2.05;;;;;;;;;;4936439;29;20179;-73
2023/09/15 14:53:13;;;;;;;2.65;1.83;;;;;;;;;;4924446;29;20186;-74
2023/09/15 14:56:18;;;;;;;3.15;1.73;;;;;;;;;;4936133;29;20183;-73
2023/09/15 14:59:22;;;;;;;13.75;2.70;;;;;;;;;;4937091;29;20191;-73
2023/09/15 15:02:25;;;;;;;3.72;2.15;;;;;;;;;;4927987;29;20230;-73
2023/09/15 15:05:30;;;;;;;7.57;2.00;;;;;;;;;;4940487;29;20208;-73
2023/09/15 15:08:34;;;;;;;2.72;2.03;;;;;;;;;;4940179;29;20194;-73
2023/09/15 15:11:38;;;;;;;3.90;2.00;;;;;;;;;;4939745;29;20217;-74
2023/09/15 15:14:41;;;;;;;4.47;2.40;;;;;;;;;;4940112;29;20643;-73
2023/09/15 15:17:46;;;;;;;4.55;2.72;;;;;;;;;;4940125;29;20178;-73
2023/09/15 15:20:52;;;;;;;13.55;3.30;;;;;;;;;;4939713;29;20241;-73
2023/09/15 15:23:56;;;;;;;9.63;2.67;;;;;;;;;;4938761;29;20178;-73
2023/09/15 15:27:00;;;;;;;4.60;2.33;;;;;;;;;;4939516;29;20184;-74
2023/09/15 15:30:05;;;;;;;5.80;3.85;;;;;;;;;;4927895;29;20190;-73
2023/09/15 15:33:10;;;;;;;3.80;2.50;;;;;;;;;;4939535;29;20187;-73
2023/09/15 15:36:14;;;;;;;2.30;2.10;;;;;;;;;;4938641;29;20184;-73
2023/09/15 15:39:18;;;;;;;5.97;2.00;;;;;;;;;;4939563;29;20185;-73
2023/09/15 15:42:22;;;;;;;3.93;1.80;;;;;;;;;;4939186;29;20223;-73
2023/09/15 15:45:26;;;;;;;2.40;2.20;;;;;;;;;;4939033;29;20214;-73
2023/09/15 15:48:33;;;;;;;7.03;2.60;;;;;;;;;;4939270;29;20183;-73
2023/09/15 15:51:37;;;;;;;4.57;2.70;;;;;;;;;;4938202;29;20225;-73
2023/09/15 15:54:41;;;;;;;34.77;4.83;;;;;;;;;;4939034;29;20182;-73
2023/09/15 15:57:45;;;;;;;2.30;2.10;;;;;;;;;;4938562;29;20196;-73
2023/09/15 16:00:49;;;;;;;2.37;1.90;;;;;;;;;;4937811;29;20189;-73
2023/09/15 16:03:53;;;;;;;8.30;2.40;;;;;;;;;;4937631;29;20181;-74
2023/09/15 16:06:57;;;;;;;5.20;1.93;;;;;;;;;;4938695;29;20178;-74
2023/09/15 16:10:01;;;;;;;36.77;3.80;;;;;;;;;;4938127;29;20185;-73
2023/09/15 16:13:05;;;;;;;3.93;2.50;;;;;;;;;;4937475;29;20213;-73
2023/09/15 16:16:09;;;;;;;4.17;2.27;;;;;;;;;;4937544;29;20179;-73
2023/09/15 16:19:13;;;;;;;4.90;2.23;;;;;;;;;;4938203;29;20531;-73
2023/09/15 16:22:17;;;;;;;2.07;1.87;;;;;;;;;;4938079;29;20672;-73
2023/09/15 16:25:21;;;;;;;2.40;2.10;;;;;;;;;;4937097;29;20219;-73
2023/09/15 16:28:25;;;;;;;2.30;2.07;;;;;;;;;;4937938;29;20193;-73
2023/09/15 16:31:30;;;;;;;5.80;2.27;;;;;;;;;;4937779;29;20225;-73
2023/09/15 16:34:37;;;;;;;85.80;6.97;;;;;;;;;;4937035;29;20186;-73
2023/09/15 16:37:41;;;;;;;6.30;2.33;;;;;;;;;;4937630;29;20194;-73
2023/09/15 16:40:46;;;;;;;9.17;2.80;;;;;;;;;;4936523;29;20525;-73
2023/09/15 16:43:51;;;;;;;14.80;7.03;;;;;;;;;;4936683;29;20183;-73
2023/09/15 16:46:55;;;;;;;9.43;2.77;;;;;;;;;;4937601;29;20541;-74
2023/09/15 16:49:59;;;;;;;5.73;2.63;;;;;;;;;;4936572;29;20669;-73
2023/09/15 16:53:03;;;;;;;4.03;2.13;;;;;;;;;;4937300;29;20188;-73
2023/09/15 16:56:12;;;;;;;5.40;2.50;;;;;;;;;;4937432;29;20522;-74
2023/09/15 16:59:16;;;;;;;4.33;2.30;;;;;;;;;;4936373;29;20183;-74
2023/09/15 17:02:21;;;;;;;3.07;2.23;;;;;;;;;;4937326;29;20212;-73
2023/09/15 17:05:25;;;;;;;8.40;2.70;;;;;;;;;;4937675;29;20217;-73
2023/09/15 17:08:30;;;;;;;5.30;2.20;;;;;;;;;;4936442;29;20184;-73
2023/09/15 17:11:35;;;;;;;4.93;2.33;;;;;;;;;;4936295;29;20225;-73
2023/09/15 17:14:40;;;;;;;2.40;2.20;;;;;;;;;;4936177;29;20184;-73
2023/09/15 17:17:44;;;;;;;3.37;2.30;;;;;;;;;;4936605;29;20533;-73
2023/09/15 17:20:48;;;;;;;3.33;1.93;;;;;;;;;;4935900;29;20184;-72
2023/09/15 17:23:52;;;;;;;2.63;2.37;;;;;;;;;;4936740;29;20192;-72
2023/09/15 17:26:56;;;;;;;4.00;2.43;;;;;;;;;;4935758;29;20208;-73
2023/09/15 17:30:01;;;;;;;4.30;2.50;;;;;;;;;;4935733;29;20180;-73
2023/09/15 17:33:05;;;;;;;3.43;2.40;;;;;;;;;;4936403;29;20533;-73
2023/09/15 17:36:09;;;;;;;3.67;2.53;;;;;;;;;;4924959;29;20176;-73
2023/09/15 17:39:14;;;;;;;3.87;2.80;;;;;;;;;;4935353;29;20188;-73
2023/09/15 17:42:19;;;;;;;5.20;2.50;;;;;;;;;;4936279;29;20220;-73
2023/09/15 17:45:23;;;;;;;4.87;2.63;;;;;;;;;;4936451;29;20215;-73
2023/09/15 17:48:27;;;;;;;4.23;2.80;;;;;;;;;;4936118;29;20180;-73
2023/09/15 17:51:32;;;;;;;3.37;2.30;;;;;;;;;;4936051;29;20573;-74
2023/09/15 17:54:36;;;;;;;3.83;2.77;;;;;;;;;;4936217;29;20180;-73
2023/09/15 17:57:43;;;;;;;4.23;3.07;;;;;;;;;;4924258;29;20184;-74
2023/09/15 18:00:47;;;;;;;6.13;2.77;;;;;;;;;;4934921;29;20640;-73
2023/09/15 18:03:51;;;;;;;5.37;3.13;;;;;;;;;;4935822;29;20180;-73
2023/09/15 18:06:55;;;;;;;3.20;2.90;;;;;;;;;;4935030;29;20204;-73
2023/09/15 18:10:01;;;;;;;4.07;2.77;;;;;;;;;;4935164;29;20180;-73
2023/09/15 18:13:05;;;;;;;4.23;3.30;;;;;;;;;;4935877;29;20672;-73
2023/09/15 18:16:09;;;;;;;5.57;3.00;;;;;;;;;;4935958;29;20180;-73
2023/09/15 18:19:13;;;;;;;4.03;3.53;;;;;;;;;;4935956;29;20192;-73
2023/09/15 18:22:17;;;;;;;4.40;3.27;;;;;;;;;;4935441;29;20224;-73
2023/09/15 18:25:21;;;;;;;5.93;3.10;;;;;;;;;;4934759;29;20556;-73
2023/09/15 18:28:26;;;;;;;3.43;3.13;;;;;;;;;;4935813;29;20521;-73
2023/09/15 18:31:30;;;;;;;3.30;3.00;;;;;;;;;;4935563;29;20215;-74
2023/09/15 18:34:34;;;;;;;4.03;3.47;;;;;;;;;;4937729;29;20184;-73